»·PEaware :: N27JP L52-L88

N27JP :: L52-L88

FLIGHT INFORMATION

Flight Status: Arrived
Operator: Privately registered:
United States
More flights under this callsign
Pilot: Weston J. (31543)
Aircraft: CESSNA 172 SKYHAWK
(C172)
More flights by this aircraft type
Origin: L52 Oceano Co
United States
Destination: L88 New Cuyama
United States
More flights between these airports :: More routes between these airports
Route: FLW
File this flight plan on PilotEdge
Remarks: First PE Flight. CAT-01 Attempt 1.
Altitude:
(Current/Filed)
7,500ft
Speed:
(Current/Filed)
120kts
Departed: 15-Sep-20 09:07 AM
Arrived: 15-Sep-20 09:37 AM
Distance/Time
Traveled:
6878nm/0:30
Distance/Time
To Go:
Arrived

Flight Plot

Page will automatically refresh every two minutes.


Map Options




Map Legend


Flown Route
Filed Route
Departure Airport
Arrival Airport
Navaid (VOR, NDB)
Fix

Horizontal Profiles

Position Reports

Time Latitude Longitude Heading Altitude Ground
Speed
15-Sep-20 08:51 0.000408 0.013975 359 3ft 0kts
15-Sep-20 08:52 35.103453 -120.624778 23 14ft 0kts
15-Sep-20 08:55 35.103453 -120.624778 23 17ft 0kts
15-Sep-20 08:58 35.103453 -120.624778 23 17ft 0kts
15-Sep-20 08:59 35.103453 -120.624778 23 17ft 0kts
15-Sep-20 09:00 35.103453 -120.624778 23 17ft 0kts
15-Sep-20 09:01 35.102337 -120.624243 211 21ft 5kts
15-Sep-20 09:02 35.100165 -120.620724 122 18ft 5kts
15-Sep-20 09:03 35.100058 -120.620520 122 17ft 0kts
15-Sep-20 09:04 35.099640 -120.619655 69 17ft 0kts
15-Sep-20 09:05 35.100538 -120.620434 302 17ft 38kts
15-Sep-20 09:06 35.104857 -120.641664 206 517ft 88kts
15-Sep-20 09:07 35.095631 -120.619506 84 1229ft 95kts
15-Sep-20 09:09 35.098841 -120.590452 83 1818ft 66kts
15-Sep-20 09:10 35.101278 -120.570395 83 2058ft 77kts
15-Sep-20 09:11 35.100175 -120.536690 123 2368ft 113kts
15-Sep-20 09:12 35.086623 -120.509309 96 3066ft 81kts
15-Sep-20 09:13 35.088147 -120.487165 86 3511ft 71kts
15-Sep-20 09:14 35.090423 -120.452153 86 3669ft 120kts
15-Sep-20 09:15 35.093029 -120.410481 86 3865ft 123kts
15-Sep-20 09:16 35.095645 -120.368887 86 4067ft 123kts
15-Sep-20 09:17 35.098260 -120.327201 86 4273ft 123kts
15-Sep-20 09:18 35.100876 -120.285394 86 4479ft 123kts
15-Sep-20 09:19 35.103495 -120.243575 86 4722ft 121kts
15-Sep-20 09:20 35.106031 -120.202889 87 5021ft 119kts
15-Sep-20 09:21 35.106611 -120.162661 90 5313ft 118kts
15-Sep-20 09:22 35.106856 -120.122785 90 5615ft 117kts
15-Sep-20 09:23 35.106966 -120.082776 99 5907ft 117kts
15-Sep-20 09:24 35.086628 -120.053451 130 6183ft 116kts
15-Sep-20 09:25 35.065406 -120.021458 130 6200ft 124kts
15-Sep-20 09:25 35.047111 -119.993936 130 6206ft 125kts
15-Sep-20 09:26 35.029629 -119.956914 120 6204ft 126kts
15-Sep-20 09:28 35.009745 -119.913081 120 6206ft 126kts
15-Sep-20 09:28 34.997408 -119.880740 103 6195ft 127kts
15-Sep-20 09:29 34.992491 -119.838014 93 5974ft 128kts
15-Sep-20 09:30 34.988531 -119.795221 99 5597ft 126kts
15-Sep-20 09:32 34.979143 -119.745358 111 4880ft 134kts
15-Sep-20 09:32 34.967748 -119.711286 112 4174ft 125kts
15-Sep-20 09:33 34.956409 -119.672158 112 3501ft 122kts
15-Sep-20 09:34 34.938086 -119.650281 209 3605ft 99kts
15-Sep-20 09:35 34.938120 -119.681243 296 2257ft 83kts
15-Sep-20 09:36 34.942960 -119.691061 39 2176ft 0kts
15-Sep-20 09:37 34.942960 -119.691061 39 2176ft 0kts
15-Sep-20 09:38 34.942960 -119.691061 39 2176ft 0kts
15-Sep-20 09:39 34.942960 -119.691061 39 2176ft 0kts
15-Sep-20 09:40 34.942960 -119.691061 39 2176ft 0kts
15-Sep-20 09:41 0.000408 0.013975 359 3ft 0kts
15-Sep-20 09:42 0.000408 0.013975 359 3ft 0kts
15-Sep-20 09:43 0.000408 0.013975 359 3ft 0kts
15-Sep-20 09:44 0.000408 0.013975 359 3ft 0kts
15-Sep-20 09:45 0.000408 0.013975 359 3ft 0kts
15-Sep-20 09:46 0.000408 0.013975 359 3ft 0kts
15-Sep-20 09:47 0.000408 0.013975 359 3ft 0kts
15-Sep-20 09:48 0.000408 0.013975 359 3ft 0kts
15-Sep-20 09:49 0.000408 0.013975 359 3ft 0kts
15-Sep-20 09:50 0.000408 0.013975 359 3ft 0kts
15-Sep-20 09:51 0.000408 0.013975 359 3ft 0kts

Navigation Log

Ident Type
Flight plan parsing failed, navigation log unavailable